Fort Myers, FL

5:06 AM EDT on July 31, 2016 (GMT -0400)
Carriedale | | Change Station

Elev 16 ft 26.52 °N, 81.82 °W | Updated 6 minutes ago

Clear
Clear
73.8 °F
Feels Like 70 °F
N
0.0
Wind Variable Wind from ENE
Gusts 1.0 mph

Today
High -- | Low -- °F
--% Chance of Precip.
Yesterday
High -- | Low -- °F
Precip. -- in
Pressure 30.02 in
Visibility 10.0 miles
Clouds Clear
Heat Index 70 °F
Dew Point 73 °F
Humidity 97%
Rainfall 0.00 in
Snow Depth Not available.
6:51 AM 8:14 PM
Waning Crescent, 8% visible
METAR KFMY 310853Z AUTO 13003KT 10SM CLR 23/23 A3001 RMK AO2 SLP164 T02330228 56009 $
Pressure 30.02 in
Visibility 10.0 miles
Clouds Clear
Heat Index 70 °F
Dew Point 73 °F
Humidity 97%
Rainfall 0.00 in
Snow Depth Not available.
6:51 AM 8:14 PM
Waning Crescent, 8% visible
METAR KFMY 310853Z AUTO 13003KT 10SM CLR 23/23 A3001 RMK AO2 SLP164 T02330228 56009 $

10-Day Weather Forecast

Almanac

Astronomy

Jul. 31, 2016 Rise Set
Actual Time
Civil Twilight
Nautical Twilight
Astronomical Twilight
Moon
Length of Visible Light
Length of Day
Tomorrow will be .
, % of the Moon is Illuminated

Today's Extremes

State Highs State Lows

Community

WunderPhotos

Upload Photos

1,928,768 photos uploaded!

WunderBlog® & News

Nearby

Air Quality

  Air Quality AQ Index Pollutant
Not available.

Snow Depth

Station Depth Elevation

Earthquake Activity

City Distance Mag. Time & Date
Minimum magnitude displayed is 2.5.

Coastal Water Temperatures

Place Temperature

Stations

Nearby Weather Stations

Station Location Temp. Windchill Dew Point Humidity Wind Precip. Elev Updated Type
                   

Watches & Warnings

There are currently no watches in effect.